Time Latitude Longitude Accuracy (66% radius in meters) Altitude (meters) Speed (km/hour) Bearing (degrees) Battery (%) GPS flag
14:20:10 59.861636 30.132563 0 0 0 0 1 delete
14:19:48 59.861629 30.132573 0 0 0 0 1 delete
14:19:45 59.861607 30.132561 0 0 0 0 1 delete
14:19:42 59.861584 30.132557 0 0 0 0 1 delete
14:19:39 59.861560 30.132563 0 0 0 0 1 delete
14:19:36 59.861547 30.132590 0 0 0 0 1 delete
14:19:33 59.861552 30.132625 0 0 0 0 1 delete
14:19:30 59.861549 30.132672 0 0 0 0 1 delete
14:19:27 59.861543 30.132710 0 0 0 0 1 delete
14:19:24 59.861539 30.132747 0 0 0 0 1 delete
14:19:21 59.861527 30.132787 0 0 0 0 1 delete
14:19:18 59.861508 30.132821 0 0 0 0 1 delete
14:19:15 59.861494 30.132863 0 0 0 0 1 delete
14:19:12 59.861482 30.132909 0 0 0 0 1 delete
14:19:10 59.861478 30.132944 0 0 0 0 1 delete
14:19:07 59.861473 30.132996 0 0 0 0 1 delete
14:19:05 59.861467 30.133030 0 0 0 0 1 delete
14:19:02 59.861461 30.133081 0 0 0 0 1 delete
14:19:00 59.861457 30.133116 0 0 0 0 1 delete
14:18:58 59.861454 30.133153 0 0 0 0 1 delete
14:18:56 59.861449 30.133188 0 0 0 0 1 delete
14:18:53 59.861439 30.133233 0 0 0 0 1 delete
14:18:51 59.861434 30.133270 0 0 0 0 1 delete
14:18:49 59.861432 30.133309 0 0 0 0 1 delete
14:18:47 59.861436 30.133351 0 0 0 0 1 delete
14:18:45 59.861439 30.133386 0 0 0 0 1 delete
14:18:43 59.861440 30.133427 0 0 0 0 1 delete
14:18:41 59.861440 30.133467 0 0 0 0 1 delete
14:18:39 59.861441 30.133507 0 0 0 0 1 delete
14:18:36 59.861442 30.133559 0 0 0 0 1 delete
14:18:34 59.861444 30.133596 0 0 0 0 1 delete
14:18:31 59.861451 30.133645 0 0 0 0 1 delete
14:18:28 59.861470 30.133672 0 0 0 0 1 delete
14:18:25 59.861489 30.133691 0 0 0 0 1 delete
14:18:22 59.861509 30.133696 0 0 0 0 1 delete
14:18:19 59.861530 30.133696 0 0 0 0 1 delete
14:18:15 59.861554 30.133704 0 0 0 0 1 delete
14:18:11 59.861576 30.133706 0 0 0 0 1 delete
14:18:08 59.861595 30.133700 0 0 0 0 1 delete
14:18:05 59.861614 30.133699 0 0 0 0 1 delete
14:18:01 59.861635 30.133702 0 0 0 0 1 delete
14:17:58 59.861654 30.133697 0 0 0 0 1 delete
14:17:54 59.861678 30.133695 0 0 0 0 1 delete
14:17:51 59.861697 30.133695 0 0 0 0 1 delete
14:17:48 59.861718 30.133700 0 0 0 0 1 delete
14:17:45 59.861739 30.133712 0 0 0 0 1 delete
14:17:42 59.861759 30.133716 0 0 0 0 1 delete
14:17:39 59.861777 30.133728 0 0 0 0 1 delete
14:17:36 59.861793 30.133741 0 0 0 0 1 delete
14:17:33 59.861813 30.133751 0 0 0 0 1 delete